Biloxi, MS

1:59 PM CST on January 31, 2015 (GMT -0600)
Keesler Air Force Base | Change Station
CLOSE
Current Station
Airport
Location: Biloxi,
Elevation: 33 ft
Nearby Weather Stations

Elev 33 ft 30.41 °N, 88.92 °W | Updated 1 minute ago

Clear
Clear
61 °F
Feels Like 61 °F
N
13
Wind Variable Wind from SE

Today
High -- | Low -- °F
--% Chance of Precip.
Yesterday
High -- | Low -- °F
Precip. -- in
6:47 AM 5:31 PM
Waxing Gibbous, 91% visible
Pressure 30.25 in
Visibility 10.0 miles
Clouds Clear
Dew Point 45 °F
Humidity 55%
Rainfall 0.00 in
Snow Depth Not available.
UV 4 out of 12
Pollen 8.00 out of 12
Air Quality Not available.
Flu Activity Not available.
METAR KBIX 311958Z AUTO 13011KT 10SM CLR 16/07 A3024 RMK AO2 SLP243 T01600070

More Conditions Fewer Conditions

Pressure 30.25 in
Visibility 10.0 miles
Clouds Clear
Dew Point 45 °F
Humidity 55%
Rainfall 0.00 in
Snow Depth Not available.
UV 4 out of 12
Pollen 8.00 out of 12
Air Quality Not available.
Flu Activity Not available.
METAR KBIX 311958Z AUTO 13011KT 10SM CLR 16/07 A3024 RMK AO2 SLP243 T01600070

More Conditions Fewer Conditions

10-Day Weather Forecast

Almanac

Astronomy

Jan. 31, 2015 Rise Set
Actual Time
Civil Twilight
Nautical Twilight
Astronomical Twilight
Moon
Length of Visible Light
Length of Day
Tomorrow will be .
, % of the Moon is Illuminated

Today's Extremes

State Highs State Lows

Community

WunderPhotos

Upload Photos

1,792,157 photos uploaded!

WunderBlogs® & News

Nearby

Air Quality

  Air Quality AQ Index Pollutant
Not available.

Snow Depth

Station Depth Elevation

Earthquake Activity

City Distance Mag. Time & Date
Minimum magnitude displayed is 2.5.

Coastal Water Temperatures

Place Temperature

Nearby Weather Stations